sensor_id;sensor_type;location;lat;lon;timestamp;P1;durP1;ratioP1;P2;durP2;ratioP2
46363;SDS011;32071;49.036;9.344;2022-12-20T00:01:19;7.73;;;5.27;;
46363;SDS011;32071;49.036;9.344;2022-12-20T00:03:49;6.43;;;4.53;;
46363;SDS011;32071;49.036;9.344;2022-12-20T00:06:17;6.53;;;4.20;;
46363;SDS011;32071;49.036;9.344;2022-12-20T00:08:43;6.63;;;4.47;;
46363;SDS011;32071;49.036;9.344;2022-12-20T00:11:09;5.60;;;4.20;;
46363;SDS011;32071;49.036;9.344;2022-12-20T00:13:35;6.77;;;3.60;;
46363;SDS011;32071;49.036;9.344;2022-12-20T00:18:38;5.00;;;4.00;;
46363;SDS011;32071;49.036;9.344;2022-12-20T00:21:05;6.00;;;4.20;;
46363;SDS011;32071;49.036;9.344;2022-12-20T00:23:34;6.77;;;4.30;;
46363;SDS011;32071;49.036;9.344;2022-12-20T00:26:04;6.20;;;3.70;;
46363;SDS011;32071;49.036;9.344;2022-12-20T00:28:32;5.93;;;4.57;;
46363;SDS011;32071;49.036;9.344;2022-12-20T00:30:59;5.43;;;3.97;;
46363;SDS011;32071;49.036;9.344;2022-12-20T00:33:25;6.47;;;4.27;;
46363;SDS011;32071;49.036;9.344;2022-12-20T00:35:51;7.97;;;4.60;;
46363;SDS011;32071;49.036;9.344;2022-12-20T00:38:19;9.67;;;5.57;;
46363;SDS011;32071;49.036;9.344;2022-12-20T00:40:44;7.93;;;5.80;;
46363;SDS011;32071;49.036;9.344;2022-12-20T00:43:10;7.77;;;5.17;;
46363;SDS011;32071;49.036;9.344;2022-12-20T00:45:35;7.20;;;4.20;;
46363;SDS011;32071;49.036;9.344;2022-12-20T00:48:01;7.27;;;4.10;;
46363;SDS011;32071;49.036;9.344;2022-12-20T00:50:27;6.07;;;4.43;;
46363;SDS011;32071;49.036;9.344;2022-12-20T00:52:52;5.70;;;4.07;;
46363;SDS011;32071;49.036;9.344;2022-12-20T00:55:18;7.77;;;4.60;;
46363;SDS011;32071;49.036;9.344;2022-12-20T00:57:43;9.17;;;4.97;;
46363;SDS011;32071;49.036;9.344;2022-12-20T01:00:09;6.07;;;4.07;;
46363;SDS011;32071;49.036;9.344;2022-12-20T01:02:35;5.80;;;4.53;;
46363;SDS011;32071;49.036;9.344;2022-12-20T01:05:01;6.50;;;4.10;;
46363;SDS011;32071;49.036;9.344;2022-12-20T01:07:26;6.13;;;4.40;;
46363;SDS011;32071;49.036;9.344;2022-12-20T01:09:52;8.00;;;4.17;;
46363;SDS011;32071;49.036;9.344;2022-12-20T01:12:18;5.57;;;3.73;;
46363;SDS011;32071;49.036;9.344;2022-12-20T01:14:43;7.63;;;4.13;;
46363;SDS011;32071;49.036;9.344;2022-12-20T01:17:09;6.70;;;4.40;;
46363;SDS011;32071;49.036;9.344;2022-12-20T01:19:36;6.10;;;3.83;;
46363;SDS011;32071;49.036;9.344;2022-12-20T01:22:01;7.20;;;3.93;;
46363;SDS011;32071;49.036;9.344;2022-12-20T01:24:27;4.80;;;4.20;;
46363;SDS011;32071;49.036;9.344;2022-12-20T01:26:53;6.50;;;4.20;;
46363;SDS011;32071;49.036;9.344;2022-12-20T01:29:18;7.80;;;4.40;;
46363;SDS011;32071;49.036;9.344;2022-12-20T01:31:44;5.80;;;4.10;;
46363;SDS011;32071;49.036;9.344;2022-12-20T01:34:09;6.47;;;3.80;;
46363;SDS011;32071;49.036;9.344;2022-12-20T01:36:35;6.07;;;3.30;;
46363;SDS011;32071;49.036;9.344;2022-12-20T01:41:28;7.93;;;4.40;;
46363;SDS011;32071;49.036;9.344;2022-12-20T01:46:21;7.00;;;4.30;;
46363;SDS011;32071;49.036;9.344;2022-12-20T01:48:59;7.50;;;4.23;;
46363;SDS011;32071;49.036;9.344;2022-12-20T01:51:56;5.40;;;4.03;;
46363;SDS011;32071;49.036;9.344;2022-12-20T01:54:27;10.80;;;3.80;;
46363;SDS011;32071;49.036;9.344;2022-12-20T01:57:02;5.23;;;3.70;;
46363;SDS011;32071;49.036;9.344;2022-12-20T01:59:30;6.30;;;4.23;;
46363;SDS011;32071;49.036;9.344;2022-12-20T02:02:01;6.20;;;4.33;;
46363;SDS011;32071;49.036;9.344;2022-12-20T02:04:29;7.33;;;4.73;;
46363;SDS011;32071;49.036;9.344;2022-12-20T02:06:54;5.30;;;4.33;;
46363;SDS011;32071;49.036;9.344;2022-12-20T02:09:22;5.53;;;4.13;;
46363;SDS011;32071;49.036;9.344;2022-12-20T02:22:15;5.50;;;3.53;;
46363;SDS011;32071;49.036;9.344;2022-12-20T02:25:13;5.77;;;4.37;;
46363;SDS011;32071;49.036;9.344;2022-12-20T02:27:52;6.10;;;4.30;;
46363;SDS011;32071;49.036;9.344;2022-12-20T02:30:42;7.10;;;3.80;;
46363;SDS011;32071;49.036;9.344;2022-12-20T02:33:11;4.97;;;3.87;;
46363;SDS011;32071;49.036;9.344;2022-12-20T02:35:39;5.97;;;4.00;;
46363;SDS011;32071;49.036;9.344;2022-12-20T02:40:55;4.63;;;3.50;;
46363;SDS011;32071;49.036;9.344;2022-12-20T02:43:33;5.70;;;3.70;;
46363;SDS011;32071;49.036;9.344;2022-12-20T02:46:19;3.53;;;2.87;;
46363;SDS011;32071;49.036;9.344;2022-12-20T02:48:48;5.00;;;3.43;;
46363;SDS011;32071;49.036;9.344;2022-12-20T02:51:15;7.07;;;3.73;;
46363;SDS011;32071;49.036;9.344;2022-12-20T02:53:44;6.53;;;3.73;;
46363;SDS011;32071;49.036;9.344;2022-12-20T02:58:50;4.47;;;3.50;;
46363;SDS011;32071;49.036;9.344;2022-12-20T03:01:24;5.73;;;3.87;;
46363;SDS011;32071;49.036;9.344;2022-12-20T03:03:57;3.73;;;3.23;;
46363;SDS011;32071;49.036;9.344;2022-12-20T03:06:24;6.33;;;3.83;;
46363;SDS011;32071;49.036;9.344;2022-12-20T03:08:50;6.70;;;3.90;;
46363;SDS011;32071;49.036;9.344;2022-12-20T03:11:15;5.60;;;4.00;;
46363;SDS011;32071;49.036;9.344;2022-12-20T03:13:41;5.40;;;3.23;;
46363;SDS011;32071;49.036;9.344;2022-12-20T03:16:06;3.80;;;3.50;;
46363;SDS011;32071;49.036;9.344;2022-12-20T03:18:33;5.50;;;3.50;;
46363;SDS011;32071;49.036;9.344;2022-12-20T03:20:58;5.57;;;3.97;;
46363;SDS011;32071;49.036;9.344;2022-12-20T03:23:24;4.97;;;3.77;;
46363;SDS011;32071;49.036;9.344;2022-12-20T03:25:50;5.60;;;3.40;;
46363;SDS011;32071;49.036;9.344;2022-12-20T03:28:15;6.57;;;4.10;;
46363;SDS011;32071;49.036;9.344;2022-12-20T03:30:41;7.10;;;4.30;;
46363;SDS011;32071;49.036;9.344;2022-12-20T03:33:06;6.50;;;4.17;;
46363;SDS011;32071;49.036;9.344;2022-12-20T03:35:32;8.53;;;4.13;;
46363;SDS011;32071;49.036;9.344;2022-12-20T03:37:58;4.53;;;3.93;;
46363;SDS011;32071;49.036;9.344;2022-12-20T03:40:23;7.60;;;4.60;;
46363;SDS011;32071;49.036;9.344;2022-12-20T03:42:49;5.63;;;3.80;;
46363;SDS011;32071;49.036;9.344;2022-12-20T03:45:14;4.50;;;3.73;;
46363;SDS011;32071;49.036;9.344;2022-12-20T03:47:40;6.80;;;4.57;;
46363;SDS011;32071;49.036;9.344;2022-12-20T03:50:06;6.43;;;4.27;;
46363;SDS011;32071;49.036;9.344;2022-12-20T03:52:32;6.87;;;4.00;;
46363;SDS011;32071;49.036;9.344;2022-12-20T03:54:57;6.93;;;4.50;;
46363;SDS011;32071;49.036;9.344;2022-12-20T03:57:23;8.37;;;4.53;;
46363;SDS011;32071;49.036;9.344;2022-12-20T03:59:49;5.90;;;3.87;;
46363;SDS011;32071;49.036;9.344;2022-12-20T04:02:14;5.37;;;3.90;;
46363;SDS011;32071;49.036;9.344;2022-12-20T04:04:40;7.43;;;4.70;;
46363;SDS011;32071;49.036;9.344;2022-12-20T04:07:06;7.37;;;4.50;;
46363;SDS011;32071;49.036;9.344;2022-12-20T04:09:32;4.50;;;3.50;;
46363;SDS011;32071;49.036;9.344;2022-12-20T04:11:58;4.47;;;3.87;;
46363;SDS011;32071;49.036;9.344;2022-12-20T04:14:24;7.60;;;4.40;;
46363;SDS011;32071;49.036;9.344;2022-12-20T04:16:50;6.40;;;3.87;;
46363;SDS011;32071;49.036;9.344;2022-12-20T04:19:15;5.77;;;3.57;;
46363;SDS011;32071;49.036;9.344;2022-12-20T04:21:41;5.87;;;4.07;;
46363;SDS011;32071;49.036;9.344;2022-12-20T04:24:06;6.43;;;3.97;;
46363;SDS011;32071;49.036;9.344;2022-12-20T04:26:32;4.70;;;3.33;;
46363;SDS011;32071;49.036;9.344;2022-12-20T04:28:58;5.90;;;4.00;;
46363;SDS011;32071;49.036;9.344;2022-12-20T04:31:23;5.67;;;3.50;;
46363;SDS011;32071;49.036;9.344;2022-12-20T04:33:49;5.00;;;3.67;;
46363;SDS011;32071;49.036;9.344;2022-12-20T04:36:15;5.30;;;3.80;;
46363;SDS011;32071;49.036;9.344;2022-12-20T04:38:41;8.13;;;3.83;;
46363;SDS011;32071;49.036;9.344;2022-12-20T04:41:06;4.33;;;3.40;;
46363;SDS011;32071;49.036;9.344;2022-12-20T04:43:32;8.87;;;5.30;;
46363;SDS011;32071;49.036;9.344;2022-12-20T04:45:57;7.90;;;5.70;;
46363;SDS011;32071;49.036;9.344;2022-12-20T04:48:24;5.00;;;3.90;;
46363;SDS011;32071;49.036;9.344;2022-12-20T04:50:54;5.40;;;3.70;;
46363;SDS011;32071;49.036;9.344;2022-12-20T04:53:20;4.07;;;3.40;;
46363;SDS011;32071;49.036;9.344;2022-12-20T04:56:06;5.23;;;3.60;;
46363;SDS011;32071;49.036;9.344;2022-12-20T04:58:32;4.90;;;3.60;;
46363;SDS011;32071;49.036;9.344;2022-12-20T05:00:58;4.47;;;3.60;;
46363;SDS011;32071;49.036;9.344;2022-12-20T05:03:24;4.93;;;3.57;;
46363;SDS011;32071;49.036;9.344;2022-12-20T05:05:51;5.00;;;3.60;;
46363;SDS011;32071;49.036;9.344;2022-12-20T05:08:16;4.70;;;3.00;;
46363;SDS011;32071;49.036;9.344;2022-12-20T05:10:42;4.07;;;3.07;;
46363;SDS011;32071;49.036;9.344;2022-12-20T05:13:09;9.00;;;3.50;;
46363;SDS011;32071;49.036;9.344;2022-12-20T05:15:35;4.23;;;3.23;;
46363;SDS011;32071;49.036;9.344;2022-12-20T05:18:01;7.20;;;4.87;;
46363;SDS011;32071;49.036;9.344;2022-12-20T05:20:28;6.13;;;4.93;;
46363;SDS011;32071;49.036;9.344;2022-12-20T05:22:55;6.10;;;4.43;;
46363;SDS011;32071;49.036;9.344;2022-12-20T05:25:43;5.57;;;4.10;;
46363;SDS011;32071;49.036;9.344;2022-12-20T05:28:34;6.73;;;4.23;;
46363;SDS011;32071;49.036;9.344;2022-12-20T05:31:01;5.50;;;3.40;;
46363;SDS011;32071;49.036;9.344;2022-12-20T05:33:27;6.30;;;2.77;;
46363;SDS011;32071;49.036;9.344;2022-12-20T05:35:53;5.87;;;2.83;;
46363;SDS011;32071;49.036;9.344;2022-12-20T05:38:19;5.90;;;4.20;;
46363;SDS011;32071;49.036;9.344;2022-12-20T05:40:46;5.90;;;3.70;;
46363;SDS011;32071;49.036;9.344;2022-12-20T05:43:13;6.43;;;3.83;;
46363;SDS011;32071;49.036;9.344;2022-12-20T05:45:39;5.80;;;4.47;;
46363;SDS011;32071;49.036;9.344;2022-12-20T05:48:05;7.30;;;4.10;;
46363;SDS011;32071;49.036;9.344;2022-12-20T05:50:30;5.50;;;3.80;;
46363;SDS011;32071;49.036;9.344;2022-12-20T05:52:56;5.00;;;4.00;;
46363;SDS011;32071;49.036;9.344;2022-12-20T05:55:22;4.90;;;3.70;;
46363;SDS011;32071;49.036;9.344;2022-12-20T05:57:47;3.70;;;3.03;;
46363;SDS011;32071;49.036;9.344;2022-12-20T06:00:13;6.20;;;3.00;;
46363;SDS011;32071;49.036;9.344;2022-12-20T06:02:39;4.30;;;3.20;;
46363;SDS011;32071;49.036;9.344;2022-12-20T06:05:04;5.43;;;3.87;;
46363;SDS011;32071;49.036;9.344;2022-12-20T06:07:30;10.33;;;3.53;;
46363;SDS011;32071;49.036;9.344;2022-12-20T06:09:56;13.53;;;3.63;;
46363;SDS011;32071;49.036;9.344;2022-12-20T06:12:22;5.23;;;3.27;;
46363;SDS011;32071;49.036;9.344;2022-12-20T06:14:48;5.33;;;3.80;;
46363;SDS011;32071;49.036;9.344;2022-12-20T06:17:14;5.23;;;3.90;;
46363;SDS011;32071;49.036;9.344;2022-12-20T06:19:39;5.47;;;3.63;;
46363;SDS011;32071;49.036;9.344;2022-12-20T06:22:05;7.40;;;3.67;;
46363;SDS011;32071;49.036;9.344;2022-12-20T06:24:32;8.37;;;3.70;;
46363;SDS011;32071;49.036;9.344;2022-12-20T06:26:58;6.53;;;3.53;;
46363;SDS011;32071;49.036;9.344;2022-12-20T06:29:24;4.80;;;3.50;;
46363;SDS011;32071;49.036;9.344;2022-12-20T06:31:49;11.50;;;3.90;;
46363;SDS011;32071;49.036;9.344;2022-12-20T06:34:15;6.03;;;3.90;;
46363;SDS011;32071;49.036;9.344;2022-12-20T06:36:41;7.20;;;3.83;;
46363;SDS011;32071;49.036;9.344;2022-12-20T06:39:07;4.93;;;3.60;;
46363;SDS011;32071;49.036;9.344;2022-12-20T06:41:33;5.97;;;4.23;;
46363;SDS011;32071;49.036;9.344;2022-12-20T06:43:59;6.30;;;4.03;;
46363;SDS011;32071;49.036;9.344;2022-12-20T06:46:25;6.33;;;4.30;;
46363;SDS011;32071;49.036;9.344;2022-12-20T06:48:51;6.60;;;3.97;;
46363;SDS011;32071;49.036;9.344;2022-12-20T06:51:17;5.93;;;4.23;;
46363;SDS011;32071;49.036;9.344;2022-12-20T06:53:43;4.93;;;3.57;;
46363;SDS011;32071;49.036;9.344;2022-12-20T06:56:08;6.40;;;4.67;;
46363;SDS011;32071;49.036;9.344;2022-12-20T06:58:34;5.00;;;3.63;;
46363;SDS011;32071;49.036;9.344;2022-12-20T07:01:01;8.30;;;3.80;;
46363;SDS011;32071;49.036;9.344;2022-12-20T07:03:26;4.40;;;3.60;;
46363;SDS011;32071;49.036;9.344;2022-12-20T07:05:53;6.53;;;4.10;;
46363;SDS011;32071;49.036;9.344;2022-12-20T07:08:19;6.97;;;3.77;;
46363;SDS011;32071;49.036;9.344;2022-12-20T07:10:46;4.63;;;3.37;;
46363;SDS011;32071;49.036;9.344;2022-12-20T07:13:11;5.70;;;3.77;;
46363;SDS011;32071;49.036;9.344;2022-12-20T07:15:37;6.43;;;4.20;;
46363;SDS011;32071;49.036;9.344;2022-12-20T07:18:03;6.73;;;4.30;;
46363;SDS011;32071;49.036;9.344;2022-12-20T07:20:29;4.87;;;3.43;;
46363;SDS011;32071;49.036;9.344;2022-12-20T07:22:54;4.20;;;3.50;;
46363;SDS011;32071;49.036;9.344;2022-12-20T07:25:20;4.47;;;3.30;;
46363;SDS011;32071;49.036;9.344;2022-12-20T07:27:46;7.53;;;4.23;;
46363;SDS011;32071;49.036;9.344;2022-12-20T07:30:13;7.97;;;5.43;;
46363;SDS011;32071;49.036;9.344;2022-12-20T07:32:40;8.63;;;5.87;;
46363;SDS011;32071;49.036;9.344;2022-12-20T07:35:06;8.60;;;5.20;;
46363;SDS011;32071;49.036;9.344;2022-12-20T07:37:32;7.10;;;5.47;;
46363;SDS011;32071;49.036;9.344;2022-12-20T07:39:57;6.87;;;4.93;;
46363;SDS011;32071;49.036;9.344;2022-12-20T07:42:23;7.23;;;4.73;;
46363;SDS011;32071;49.036;9.344;2022-12-20T07:44:49;9.10;;;5.33;;
46363;SDS011;32071;49.036;9.344;2022-12-20T07:47:14;10.20;;;7.20;;
46363;SDS011;32071;49.036;9.344;2022-12-20T07:49:40;6.57;;;4.60;;
46363;SDS011;32071;49.036;9.344;2022-12-20T07:52:05;5.83;;;4.03;;
46363;SDS011;32071;49.036;9.344;2022-12-20T07:54:45;6.20;;;4.50;;
46363;SDS011;32071;49.036;9.344;2022-12-20T07:57:20;7.53;;;4.23;;
46363;SDS011;32071;49.036;9.344;2022-12-20T07:59:53;9.33;;;5.70;;
46363;SDS011;32071;49.036;9.344;2022-12-20T08:02:25;10.13;;;6.10;;
46363;SDS011;32071;49.036;9.344;2022-12-20T08:04:55;12.80;;;6.57;;
46363;SDS011;32071;49.036;9.344;2022-12-20T08:07:21;7.67;;;5.40;;
46363;SDS011;32071;49.036;9.344;2022-12-20T08:09:48;9.90;;;5.90;;
46363;SDS011;32071;49.036;9.344;2022-12-20T08:12:15;12.03;;;5.43;;
46363;SDS011;32071;49.036;9.344;2022-12-20T08:14:43;8.30;;;5.00;;
46363;SDS011;32071;49.036;9.344;2022-12-20T08:17:09;8.90;;;4.53;;
46363;SDS011;32071;49.036;9.344;2022-12-20T08:19:35;8.97;;;5.17;;
46363;SDS011;32071;49.036;9.344;2022-12-20T08:22:02;9.63;;;5.80;;
46363;SDS011;32071;49.036;9.344;2022-12-20T08:24:28;8.97;;;5.33;;
46363;SDS011;32071;49.036;9.344;2022-12-20T08:26:54;8.60;;;4.77;;
46363;SDS011;32071;49.036;9.344;2022-12-20T08:29:20;7.20;;;5.03;;
46363;SDS011;32071;49.036;9.344;2022-12-20T08:31:46;12.13;;;6.40;;
46363;SDS011;32071;49.036;9.344;2022-12-20T08:34:11;9.10;;;6.23;;
46363;SDS011;32071;49.036;9.344;2022-12-20T08:36:38;7.60;;;5.83;;
46363;SDS011;32071;49.036;9.344;2022-12-20T08:39:04;10.83;;;6.50;;
46363;SDS011;32071;49.036;9.344;2022-12-20T08:41:30;7.13;;;5.53;;
46363;SDS011;32071;49.036;9.344;2022-12-20T08:43:58;6.93;;;4.83;;
46363;SDS011;32071;49.036;9.344;2022-12-20T08:46:24;5.03;;;4.30;;
46363;SDS011;32071;49.036;9.344;2022-12-20T08:48:49;7.70;;;5.43;;
46363;SDS011;32071;49.036;9.344;2022-12-20T08:54:07;4.63;;;3.70;;
46363;SDS011;32071;49.036;9.344;2022-12-20T08:56:35;3.73;;;3.00;;
46363;SDS011;32071;49.036;9.344;2022-12-20T08:59:00;8.97;;;4.40;;
46363;SDS011;32071;49.036;9.344;2022-12-20T09:01:26;6.00;;;3.60;;
46363;SDS011;32071;49.036;9.344;2022-12-20T09:03:54;7.13;;;3.80;;
46363;SDS011;32071;49.036;9.344;2022-12-20T09:06:20;5.13;;;3.43;;
46363;SDS011;32071;49.036;9.344;2022-12-20T09:08:47;5.00;;;3.90;;
46363;SDS011;32071;49.036;9.344;2022-12-20T09:11:14;7.10;;;3.43;;
46363;SDS011;32071;49.036;9.344;2022-12-20T09:13:41;7.77;;;4.20;;
46363;SDS011;32071;49.036;9.344;2022-12-20T09:16:08;5.73;;;3.73;;
46363;SDS011;32071;49.036;9.344;2022-12-20T09:18:34;6.33;;;3.53;;
46363;SDS011;32071;49.036;9.344;2022-12-20T09:21:01;4.57;;;3.57;;
46363;SDS011;32071;49.036;9.344;2022-12-20T09:23:28;4.80;;;3.30;;
46363;SDS011;32071;49.036;9.344;2022-12-20T09:25:55;13.20;;;3.47;;
46363;SDS011;32071;49.036;9.344;2022-12-20T09:28:26;3.70;;;3.20;;
46363;SDS011;32071;49.036;9.344;2022-12-20T09:30:51;4.07;;;3.37;;
46363;SDS011;32071;49.036;9.344;2022-12-20T09:33:25;7.00;;;4.00;;
46363;SDS011;32071;49.036;9.344;2022-12-20T09:35:51;4.87;;;3.80;;
46363;SDS011;32071;49.036;9.344;2022-12-20T09:38:16;4.50;;;3.83;;
46363;SDS011;32071;49.036;9.344;2022-12-20T09:40:46;6.37;;;4.00;;
46363;SDS011;32071;49.036;9.344;2022-12-20T09:43:13;4.43;;;3.57;;
46363;SDS011;32071;49.036;9.344;2022-12-20T09:45:46;7.07;;;4.97;;
46363;SDS011;32071;49.036;9.344;2022-12-20T09:48:16;10.50;;;7.80;;
46363;SDS011;32071;49.036;9.344;2022-12-20T09:50:48;8.30;;;5.63;;
46363;SDS011;32071;49.036;9.344;2022-12-20T09:53:53;5.93;;;5.20;;
46363;SDS011;32071;49.036;9.344;2022-12-20T09:57:10;5.37;;;4.10;;
46363;SDS011;32071;49.036;9.344;2022-12-20T09:59:58;6.10;;;5.07;;
46363;SDS011;32071;49.036;9.344;2022-12-20T10:02:24;6.37;;;4.83;;
46363;SDS011;32071;49.036;9.344;2022-12-20T10:04:53;5.20;;;4.50;;
46363;SDS011;32071;49.036;9.344;2022-12-20T10:13:00;7.10;;;5.27;;
46363;SDS011;32071;49.036;9.344;2022-12-20T10:16:20;7.50;;;4.70;;
46363;SDS011;32071;49.036;9.344;2022-12-20T10:24:31;6.33;;;4.70;;
46363;SDS011;32071;49.036;9.344;2022-12-20T10:27:08;5.70;;;4.33;;
46363;SDS011;32071;49.036;9.344;2022-12-20T10:29:41;4.57;;;3.80;;
46363;SDS011;32071;49.036;9.344;2022-12-20T10:32:13;6.90;;;4.90;;
46363;SDS011;32071;49.036;9.344;2022-12-20T10:34:54;11.50;;;6.47;;
46363;SDS011;32071;49.036;9.344;2022-12-20T10:37:21;12.73;;;7.20;;
46363;SDS011;32071;49.036;9.344;2022-12-20T10:39:48;9.00;;;6.63;;
46363;SDS011;32071;49.036;9.344;2022-12-20T10:42:35;11.40;;;5.37;;
46363;SDS011;32071;49.036;9.344;2022-12-20T10:45:25;8.40;;;6.57;;
46363;SDS011;32071;49.036;9.344;2022-12-20T10:47:56;8.00;;;6.60;;
46363;SDS011;32071;49.036;9.344;2022-12-20T10:50:24;11.50;;;7.60;;
46363;SDS011;32071;49.036;9.344;2022-12-20T10:55:41;13.67;;;8.33;;
46363;SDS011;32071;49.036;9.344;2022-12-20T10:58:31;10.37;;;7.23;;
46363;SDS011;32071;49.036;9.344;2022-12-20T11:01:12;12.93;;;8.90;;
46363;SDS011;32071;49.036;9.344;2022-12-20T11:03:53;14.00;;;7.37;;
46363;SDS011;32071;49.036;9.344;2022-12-20T11:06:27;9.70;;;7.47;;
46363;SDS011;32071;49.036;9.344;2022-12-20T11:09:36;9.23;;;7.07;;
46363;SDS011;32071;49.036;9.344;2022-12-20T11:12:13;11.10;;;7.20;;
46363;SDS011;32071;49.036;9.344;2022-12-20T11:14:45;11.30;;;7.30;;
46363;SDS011;32071;49.036;9.344;2022-12-20T11:38:01;8.93;;;6.70;;
46363;SDS011;32071;49.036;9.344;2022-12-20T11:40:41;11.10;;;7.80;;
46363;SDS011;32071;49.036;9.344;2022-12-20T11:43:35;12.43;;;7.00;;
46363;SDS011;32071;49.036;9.344;2022-12-20T11:46:45;6.77;;;5.20;;
46363;SDS011;32071;49.036;9.344;2022-12-20T11:49:51;6.90;;;5.00;;
46363;SDS011;32071;49.036;9.344;2022-12-20T11:52:44;5.97;;;3.60;;
46363;SDS011;32071;49.036;9.344;2022-12-20T11:55:21;5.30;;;3.90;;
46363;SDS011;32071;49.036;9.344;2022-12-20T11:58:10;5.63;;;3.97;;
46363;SDS011;32071;49.036;9.344;2022-12-20T12:00:58;4.87;;;3.73;;
46363;SDS011;32071;49.036;9.344;2022-12-20T12:03:40;6.10;;;3.70;;
46363;SDS011;32071;49.036;9.344;2022-12-20T12:06:25;5.30;;;3.77;;
46363;SDS011;32071;49.036;9.344;2022-12-20T12:11:34;4.13;;;3.33;;
46363;SDS011;32071;49.036;9.344;2022-12-20T12:14:07;4.13;;;3.10;;
46363;SDS011;32071;49.036;9.344;2022-12-20T12:16:41;5.07;;;3.57;;
46363;SDS011;32071;49.036;9.344;2022-12-20T12:19:12;3.70;;;3.10;;
46363;SDS011;32071;49.036;9.344;2022-12-20T12:21:41;4.27;;;3.50;;
46363;SDS011;32071;49.036;9.344;2022-12-20T12:24:20;5.90;;;4.27;;
46363;SDS011;32071;49.036;9.344;2022-12-20T12:26:52;8.80;;;6.07;;
46363;SDS011;32071;49.036;9.344;2022-12-20T12:29:18;8.73;;;6.10;;
46363;SDS011;32071;49.036;9.344;2022-12-20T12:31:47;7.20;;;4.77;;
46363;SDS011;32071;49.036;9.344;2022-12-20T12:37:06;5.00;;;4.00;;
46363;SDS011;32071;49.036;9.344;2022-12-20T12:45:08;5.00;;;3.30;;
46363;SDS011;32071;49.036;9.344;2022-12-20T12:48:25;5.67;;;3.53;;
46363;SDS011;32071;49.036;9.344;2022-12-20T12:50:39;4.10;;;3.20;;
46363;SDS011;32071;49.036;9.344;2022-12-20T12:55:48;4.53;;;3.83;;
46363;SDS011;32071;49.036;9.344;2022-12-20T13:00:51;11.93;;;8.10;;
46363;SDS011;32071;49.036;9.344;2022-12-20T13:03:39;14.53;;;9.67;;
46363;SDS011;32071;49.036;9.344;2022-12-20T13:11:33;5.70;;;3.30;;
46363;SDS011;32071;49.036;9.344;2022-12-20T13:16:50;4.60;;;3.50;;
46363;SDS011;32071;49.036;9.344;2022-12-20T13:19:40;6.40;;;3.30;;
46363;SDS011;32071;49.036;9.344;2022-12-20T13:29:55;3.23;;;2.90;;
46363;SDS011;32071;49.036;9.344;2022-12-20T13:37:54;3.93;;;3.40;;
46363;SDS011;32071;49.036;9.344;2022-12-20T13:45:45;6.10;;;5.17;;
46363;SDS011;32071;49.036;9.344;2022-12-20T13:51:18;10.40;;;8.53;;
46363;SDS011;32071;49.036;9.344;2022-12-20T13:54:28;9.60;;;7.17;;
46363;SDS011;32071;49.036;9.344;2022-12-20T13:56:45;10.10;;;6.63;;
46363;SDS011;32071;49.036;9.344;2022-12-20T14:01:50;5.13;;;4.60;;
46363;SDS011;32071;49.036;9.344;2022-12-20T14:04:21;10.60;;;7.57;;
46363;SDS011;32071;49.036;9.344;2022-12-20T14:06:57;12.07;;;5.87;;
46363;SDS011;32071;49.036;9.344;2022-12-20T14:09:32;4.20;;;3.37;;
46363;SDS011;32071;49.036;9.344;2022-12-20T14:12:33;3.67;;;3.30;;
46363;SDS011;32071;49.036;9.344;2022-12-20T14:14:52;4.67;;;3.73;;
46363;SDS011;32071;49.036;9.344;2022-12-20T14:17:28;5.43;;;3.83;;
46363;SDS011;32071;49.036;9.344;2022-12-20T14:23:01;3.70;;;3.07;;
46363;SDS011;32071;49.036;9.344;2022-12-20T14:25:37;4.37;;;3.27;;
46363;SDS011;32071;49.036;9.344;2022-12-20T14:28:33;4.23;;;3.57;;
46363;SDS011;32071;49.036;9.344;2022-12-20T14:31:06;4.07;;;3.23;;
46363;SDS011;32071;49.036;9.344;2022-12-20T14:33:46;3.50;;;3.10;;
46363;SDS011;32071;49.036;9.344;2022-12-20T14:38:41;5.03;;;3.60;;
46363;SDS011;32071;49.036;9.344;2022-12-20T14:41:37;4.30;;;3.50;;
46363;SDS011;32071;49.036;9.344;2022-12-20T14:44:21;6.30;;;3.40;;
46363;SDS011;32071;49.036;9.344;2022-12-20T14:49:19;13.63;;;8.67;;
46363;SDS011;32071;49.036;9.344;2022-12-20T14:51:48;8.27;;;5.43;;
46363;SDS011;32071;49.036;9.344;2022-12-20T14:54:18;5.23;;;3.50;;
46363;SDS011;32071;49.036;9.344;2022-12-20T14:56:47;4.17;;;3.40;;
46363;SDS011;32071;49.036;9.344;2022-12-20T14:59:22;3.23;;;2.70;;
46363;SDS011;32071;49.036;9.344;2022-12-20T15:01:55;4.10;;;2.80;;
46363;SDS011;32071;49.036;9.344;2022-12-20T15:04:24;3.97;;;3.20;;
46363;SDS011;32071;49.036;9.344;2022-12-20T15:06:56;3.37;;;2.50;;
46363;SDS011;32071;49.036;9.344;2022-12-20T15:11:51;4.37;;;3.20;;
46363;SDS011;32071;49.036;9.344;2022-12-20T15:17:11;11.20;;;6.50;;
46363;SDS011;32071;49.036;9.344;2022-12-20T15:19:39;9.50;;;4.23;;
46363;SDS011;32071;49.036;9.344;2022-12-20T15:22:08;6.10;;;4.17;;
46363;SDS011;32071;49.036;9.344;2022-12-20T15:24:39;3.93;;;3.33;;
46363;SDS011;32071;49.036;9.344;2022-12-20T15:27:05;4.20;;;3.27;;
46363;SDS011;32071;49.036;9.344;2022-12-20T15:29:40;5.90;;;3.33;;
46363;SDS011;32071;49.036;9.344;2022-12-20T15:32:14;5.50;;;3.93;;
46363;SDS011;32071;49.036;9.344;2022-12-20T15:34:46;7.10;;;3.10;;
46363;SDS011;32071;49.036;9.344;2022-12-20T15:37:13;4.23;;;3.20;;
46363;SDS011;32071;49.036;9.344;2022-12-20T15:39:39;5.30;;;3.30;;
46363;SDS011;32071;49.036;9.344;2022-12-20T15:42:05;11.30;;;3.17;;
46363;SDS011;32071;49.036;9.344;2022-12-20T15:44:31;4.17;;;3.17;;
46363;SDS011;32071;49.036;9.344;2022-12-20T15:46:59;5.80;;;3.27;;
46363;SDS011;32071;49.036;9.344;2022-12-20T15:49:29;11.00;;;6.30;;
46363;SDS011;32071;49.036;9.344;2022-12-20T15:51:59;8.10;;;4.17;;
46363;SDS011;32071;49.036;9.344;2022-12-20T15:56:55;3.90;;;3.40;;
46363;SDS011;32071;49.036;9.344;2022-12-20T15:59:22;13.77;;;6.90;;
46363;SDS011;32071;49.036;9.344;2022-12-20T16:01:48;20.57;;;11.67;;
46363;SDS011;32071;49.036;9.344;2022-12-20T16:04:15;26.20;;;14.80;;
46363;SDS011;32071;49.036;9.344;2022-12-20T16:06:44;5.40;;;4.83;;
46363;SDS011;32071;49.036;9.344;2022-12-20T16:09:11;72.60;;;36.27;;
46363;SDS011;32071;49.036;9.344;2022-12-20T16:11:37;33.43;;;18.20;;
46363;SDS011;32071;49.036;9.344;2022-12-20T16:14:03;19.37;;;11.70;;
46363;SDS011;32071;49.036;9.344;2022-12-20T16:16:30;74.73;;;34.60;;
46363;SDS011;32071;49.036;9.344;2022-12-20T16:19:00;46.00;;;24.63;;
46363;SDS011;32071;49.036;9.344;2022-12-20T16:21:32;25.90;;;14.30;;
46363;SDS011;32071;49.036;9.344;2022-12-20T16:24:00;23.23;;;19.03;;
46363;SDS011;32071;49.036;9.344;2022-12-20T16:26:27;19.27;;;13.77;;
46363;SDS011;32071;49.036;9.344;2022-12-20T16:28:53;16.80;;;11.17;;
46363;SDS011;32071;49.036;9.344;2022-12-20T16:31:32;24.30;;;15.33;;
46363;SDS011;32071;49.036;9.344;2022-12-20T16:34:00;11.67;;;8.60;;
46363;SDS011;32071;49.036;9.344;2022-12-20T16:36:30;8.33;;;5.40;;
46363;SDS011;32071;49.036;9.344;2022-12-20T16:38:56;16.27;;;11.00;;
46363;SDS011;32071;49.036;9.344;2022-12-20T16:41:23;22.50;;;14.90;;
46363;SDS011;32071;49.036;9.344;2022-12-20T16:43:52;9.40;;;7.00;;
46363;SDS011;32071;49.036;9.344;2022-12-20T16:46:19;40.63;;;26.17;;
46363;SDS011;32071;49.036;9.344;2022-12-20T16:48:46;34.67;;;23.27;;
46363;SDS011;32071;49.036;9.344;2022-12-20T16:53:49;13.97;;;8.90;;
46363;SDS011;32071;49.036;9.344;2022-12-20T16:56:19;16.53;;;10.07;;
46363;SDS011;32071;49.036;9.344;2022-12-20T16:58:45;11.77;;;7.63;;
46363;SDS011;32071;49.036;9.344;2022-12-20T17:01:14;7.30;;;5.40;;
46363;SDS011;32071;49.036;9.344;2022-12-20T17:03:42;15.53;;;10.07;;
46363;SDS011;32071;49.036;9.344;2022-12-20T17:06:11;12.70;;;9.40;;
46363;SDS011;32071;49.036;9.344;2022-12-20T17:08:37;6.70;;;5.80;;
46363;SDS011;32071;49.036;9.344;2022-12-20T17:11:11;7.57;;;5.70;;